createdAt,value
2017-11-11T00:00:22.582Z,0
2017-11-11T00:01:25.375Z,0
2017-11-11T00:02:28.157Z,0
2017-11-11T00:03:30.576Z,0
2017-11-11T00:04:33.272Z,0
2017-11-11T00:05:35.760Z,0
2017-11-11T00:06:38.193Z,0
2017-11-11T00:07:40.627Z,0
2017-11-11T00:08:43.036Z,0
2017-11-11T00:09:45.446Z,0
2017-11-11T00:10:47.883Z,0
2017-11-11T00:11:50.315Z,0
2017-11-11T00:12:52.726Z,0
2017-11-11T00:13:55.497Z,0
2017-11-11T00:14:57.921Z,0
2017-11-11T00:16:00.710Z,0
2017-11-11T00:17:03.497Z,0
2017-11-11T00:18:06.018Z,0
2017-11-11T00:19:08.569Z,0
2017-11-11T00:20:10.996Z,0
2017-11-11T00:21:13.411Z,0
2017-11-11T00:22:15.833Z,0
2017-11-11T00:23:18.255Z,0
2017-11-11T00:24:20.685Z,0
2017-11-11T00:25:23.110Z,0
2017-11-11T00:26:25.513Z,0
2017-11-11T00:27:27.941Z,0
2017-11-11T00:28:30.372Z,0
2017-11-11T00:29:32.805Z,0
2017-11-11T00:30:35.220Z,0
2017-11-11T00:31:38.012Z,0
2017-11-11T00:32:40.438Z,0
2017-11-11T00:33:42.844Z,0
2017-11-11T00:34:45.276Z,0
2017-11-11T00:35:47.699Z,0
2017-11-11T00:36:50.129Z,0
2017-11-11T00:37:52.557Z,0
2017-11-11T00:38:54.967Z,0
2017-11-11T00:39:57.387Z,0
2017-11-11T00:40:59.830Z,0
2017-11-11T00:42:02.245Z,0
2017-11-11T00:43:05.022Z,0
2017-11-11T00:44:07.823Z,0
2017-11-11T00:45:10.239Z,0
2017-11-11T00:46:12.722Z,0
2017-11-11T00:47:15.136Z,0
2017-11-11T00:48:17.575Z,0
2017-11-11T00:49:20.007Z,0
2017-11-11T00:50:22.441Z,0
2017-11-11T00:51:24.862Z,0
2017-11-11T00:52:27.267Z,0
2017-11-11T00:53:29.686Z,0
2017-11-11T00:54:32.468Z,0
2017-11-11T00:55:34.904Z,0
2017-11-11T00:56:37.686Z,0
2017-11-11T00:57:40.098Z,0
2017-11-11T00:58:42.520Z,0
2017-11-11T00:59:44.958Z,0
2017-11-11T01:00:47.414Z,0
2017-11-11T01:01:49.838Z,0
2017-11-11T01:02:52.259Z,0
2017-11-11T01:03:54.687Z,0
2017-11-11T01:04:57.113Z,0
2017-11-11T01:05:59.886Z,0
2017-11-11T01:07:02.314Z,0
2017-11-11T01:08:04.727Z,0
2017-11-11T01:09:07.161Z,0
2017-11-11T01:10:09.585Z,0
2017-11-11T01:11:12.004Z,0
2017-11-11T01:12:14.432Z,0
2017-11-11T01:13:16.857Z,0
2017-11-11T01:14:19.276Z,0
2017-11-11T01:15:21.705Z,0
2017-11-11T01:16:24.125Z,0
2017-11-11T01:17:26.547Z,0
2017-11-11T01:18:28.984Z,0
2017-11-11T01:19:31.398Z,0
2017-11-11T01:20:33.830Z,0
2017-11-11T01:21:36.245Z,0
2017-11-11T01:22:38.666Z,0
2017-11-11T01:23:41.097Z,0
2017-11-11T01:24:43.510Z,0
2017-11-11T01:25:46.311Z,0
2017-11-11T01:26:49.096Z,0
2017-11-11T01:27:51.504Z,0
2017-11-11T01:28:53.933Z,0
2017-11-11T01:29:56.346Z,0
2017-11-11T01:30:58.788Z,0
2017-11-11T01:32:01.209Z,0
2017-11-11T01:33:03.619Z,0
2017-11-11T01:34:06.051Z,0
2017-11-11T01:35:08.467Z,0
2017-11-11T01:36:10.900Z,0
2017-11-11T01:37:13.681Z,0
2017-11-11T01:38:16.469Z,0
2017-11-11T01:39:19.289Z,0
2017-11-11T01:40:21.710Z,0
2017-11-11T01:41:24.127Z,0
2017-11-11T01:42:26.547Z,0
2017-11-11T01:43:28.972Z,0
2017-11-11T01:44:31.386Z,0
2017-11-11T01:45:33.817Z,0
2017-11-11T01:46:36.601Z,0
2017-11-11T01:47:39.015Z,0
2017-11-11T01:48:41.803Z,0
2017-11-11T01:49:44.216Z,0
2017-11-11T01:50:46.634Z,0
2017-11-11T01:51:49.060Z,0
2017-11-11T01:52:51.476Z,0
2017-11-11T01:53:53.895Z,0
2017-11-11T01:54:56.341Z,0
2017-11-11T01:55:58.748Z,0
2017-11-11T01:57:01.166Z,0
2017-11-11T01:58:03.588Z,0
2017-11-11T01:59:06.023Z,0
2017-11-11T02:00:08.437Z,0
2017-11-11T02:01:10.857Z,0
2017-11-11T02:02:13.276Z,0
2017-11-11T02:03:15.697Z,0
2017-11-11T02:04:18.119Z,0
2017-11-11T02:05:20.912Z,0
2017-11-11T02:06:23.317Z,0
2017-11-11T02:07:25.743Z,0
2017-11-11T02:08:28.183Z,0
2017-11-11T02:09:30.596Z,0
2017-11-11T02:10:33.385Z,0
2017-11-11T02:11:35.816Z,0
2017-11-11T02:12:38.232Z,0
2017-11-11T02:13:40.675Z,0
2017-11-11T02:14:43.102Z,0
2017-11-11T02:15:45.890Z,0
2017-11-11T02:16:48.316Z,0
2017-11-11T02:17:50.750Z,0
2017-11-11T02:18:53.157Z,0
2017-11-11T02:19:55.590Z,0
2017-11-11T02:20:58.002Z,0
2017-11-11T02:22:00.430Z,0
2017-11-11T02:23:02.852Z,0
2017-11-11T02:24:05.625Z,0
2017-11-11T02:25:08.054Z,0
2017-11-11T02:26:10.486Z,0
2017-11-11T02:27:12.919Z,0
2017-11-11T02:28:15.379Z,0
2017-11-11T02:29:17.908Z,0
2017-11-11T02:30:20.780Z,0
2017-11-11T02:31:23.210Z,0
2017-11-11T02:32:26.037Z,0
2017-11-11T02:33:28.899Z,0
2017-11-11T02:34:31.315Z,0
2017-11-11T02:35:33.770Z,0
2017-11-11T02:36:36.263Z,0
2017-11-11T02:37:38.728Z,0
2017-11-11T02:38:41.184Z,0
2017-11-11T02:39:44.005Z,0
2017-11-11T02:40:46.494Z,0
2017-11-11T02:41:48.949Z,0
2017-11-11T02:42:51.397Z,0
2017-11-11T02:43:53.898Z,0
2017-11-11T02:44:56.339Z,0
2017-11-11T02:45:58.770Z,0
2017-11-11T02:47:01.313Z,0
2017-11-11T02:48:04.546Z,0
2017-11-11T02:49:07.036Z,0
2017-11-11T02:50:09.546Z,0
2017-11-11T02:51:12.341Z,0
2017-11-11T02:52:15.151Z,0
2017-11-11T02:53:18.003Z,0
2017-11-11T02:54:20.814Z,0
2017-11-11T02:55:23.616Z,0
2017-11-11T02:56:26.054Z,0
2017-11-11T02:57:28.543Z,0
2017-11-11T02:58:30.967Z,0
2017-11-11T02:59:33.440Z,0
2017-11-11T03:00:36.288Z,0
2017-11-11T03:01:39.088Z,0
2017-11-11T03:02:41.529Z,0
2017-11-11T03:03:44.345Z,0
2017-11-11T03:04:46.764Z,0
2017-11-11T03:05:49.244Z,0
2017-11-11T03:06:51.696Z,0
2017-11-11T03:07:54.129Z,0
2017-11-11T03:08:56.590Z,0
2017-11-11T03:09:59.166Z,0
2017-11-11T03:11:01.687Z,0
2017-11-11T03:12:04.169Z,0
2017-11-11T03:13:06.589Z,0
2017-11-11T03:14:09.055Z,0
2017-11-11T03:15:11.487Z,0
2017-11-11T03:16:14.327Z,0
2017-11-11T03:17:16.794Z,0
2017-11-11T03:18:19.283Z,0
2017-11-11T03:19:21.711Z,0
2017-11-11T03:20:24.146Z,0
2017-11-11T03:21:26.665Z,0
2017-11-11T03:22:29.091Z,0
2017-11-11T03:23:31.525Z,0
2017-11-11T03:24:33.980Z,0
2017-11-11T03:25:36.436Z,0
2017-11-11T03:26:38.870Z,0
2017-11-11T03:27:41.344Z,0
2017-11-11T03:28:43.765Z,0
2017-11-11T03:29:46.212Z,0
2017-11-11T03:30:48.732Z,0
2017-11-11T03:31:51.233Z,0
2017-11-11T03:32:53.689Z,0
2017-11-11T03:33:56.107Z,0
2017-11-11T03:34:58.575Z,0
2017-11-11T03:36:01.013Z,0
2017-11-11T03:37:03.449Z,0
2017-11-11T03:38:06.223Z,0
2017-11-11T03:39:08.654Z,0
2017-11-11T03:40:11.079Z,0
2017-11-11T03:41:13.495Z,0
2017-11-11T03:42:15.924Z,0
2017-11-11T03:43:18.346Z,0
2017-11-11T03:44:20.747Z,0
2017-11-11T03:45:23.173Z,0
2017-11-11T03:46:25.596Z,0
2017-11-11T03:47:28.012Z,0
2017-11-11T03:48:30.437Z,0
2017-11-11T03:49:32.861Z,0
2017-11-11T03:50:35.673Z,0
2017-11-11T03:51:38.088Z,0
2017-11-11T03:52:40.501Z,0
2017-11-11T03:53:42.933Z,0
2017-11-11T03:54:45.355Z,0
2017-11-11T03:55:47.779Z,0
2017-11-11T03:56:50.199Z,0
2017-11-11T03:57:52.625Z,0
2017-11-11T03:58:55.040Z,0
2017-11-11T03:59:57.462Z,0
2017-11-11T04:00:59.880Z,0
2017-11-11T04:02:02.308Z,0
2017-11-11T04:03:05.076Z,0
2017-11-11T04:04:07.497Z,0
2017-11-11T04:05:09.910Z,0
2017-11-11T04:06:12.338Z,0
2017-11-11T04:07:14.757Z,0
2017-11-11T04:08:17.545Z,0
2017-11-11T04:09:20.352Z,0
2017-11-11T04:10:22.764Z,0
2017-11-11T04:11:25.542Z,0
2017-11-11T04:12:27.968Z,0
2017-11-11T04:13:30.381Z,0
2017-11-11T04:14:33.170Z,0
2017-11-11T04:15:35.586Z,0
2017-11-11T04:16:38.008Z,0
2017-11-11T04:17:40.433Z,0
2017-11-11T04:18:43.216Z,0
2017-11-11T04:19:45.635Z,0
2017-11-11T04:20:48.063Z,0
2017-11-11T04:21:50.839Z,0
2017-11-11T04:22:53.615Z,0
2017-11-11T04:23:56.028Z,0
2017-11-11T04:24:58.456Z,0
2017-11-11T04:26:00.878Z,0
2017-11-11T04:27:03.303Z,0
2017-11-11T04:28:05.725Z,0
2017-11-11T04:29:08.140Z,0
2017-11-11T04:30:10.949Z,0
2017-11-11T04:31:13.367Z,0
2017-11-11T04:32:16.145Z,0
2017-11-11T04:33:18.558Z,0
2017-11-11T04:34:21.359Z,0
2017-11-11T04:35:23.773Z,0
2017-11-11T04:36:26.201Z,0
2017-11-11T04:37:28.617Z,0
2017-11-11T04:38:31.033Z,0
2017-11-11T04:39:33.459Z,0
2017-11-11T04:40:35.901Z,0
2017-11-11T04:41:38.319Z,0
2017-11-11T04:42:40.748Z,0
2017-11-11T04:43:43.161Z,0
2017-11-11T04:44:45.581Z,0
2017-11-11T04:45:48.008Z,0
2017-11-11T04:46:50.437Z,0
2017-11-11T04:47:52.845Z,0
2017-11-11T04:48:55.278Z,0
2017-11-11T04:49:57.722Z,0
2017-11-11T04:51:00.166Z,0
2017-11-11T04:52:02.581Z,0
2017-11-11T04:53:04.996Z,0
2017-11-11T04:54:07.414Z,0
2017-11-11T04:55:09.841Z,0
2017-11-11T04:56:12.257Z,0
2017-11-11T04:57:14.671Z,0
2017-11-11T04:58:17.099Z,0
2017-11-11T04:59:19.524Z,0
2017-11-11T05:00:21.930Z,0
2017-11-11T05:01:24.711Z,0
2017-11-11T05:02:27.142Z,0
2017-11-11T05:03:29.558Z,0
2017-11-11T05:04:32.699Z,0
2017-11-11T05:05:35.463Z,0
2017-11-11T05:06:37.882Z,0
2017-11-11T05:07:40.306Z,0
2017-11-11T05:08:42.726Z,0
2017-11-11T05:09:45.137Z,0
2017-11-11T05:10:47.574Z,0
2017-11-11T05:11:49.986Z,0
2017-11-11T05:12:52.413Z,0
2017-11-11T05:13:54.839Z,0
2017-11-11T05:14:57.257Z,0
2017-11-11T05:15:59.675Z,0
2017-11-11T05:17:02.105Z,0
2017-11-11T05:18:04.527Z,0
2017-11-11T05:19:06.948Z,0
2017-11-11T05:20:09.367Z,0
2017-11-11T05:21:11.781Z,0
2017-11-11T05:22:14.205Z,0
2017-11-11T05:23:16.623Z,0
2017-11-11T05:24:19.027Z,0
2017-11-11T05:25:21.456Z,0
2017-11-11T05:26:23.898Z,0
2017-11-11T05:27:26.317Z,0
2017-11-11T05:28:28.738Z,0
2017-11-11T05:29:31.152Z,0
2017-11-11T05:30:33.937Z,0
2017-11-11T05:31:36.806Z,0
2017-11-11T05:32:39.221Z,0
2017-11-11T05:33:41.639Z,0
2017-11-11T05:34:44.056Z,0
2017-11-11T05:35:46.488Z,0
2017-11-11T05:36:48.908Z,0
2017-11-11T05:37:51.330Z,0
2017-11-11T05:38:53.744Z,0
2017-11-11T05:39:56.166Z,0
2017-11-11T05:40:58.592Z,0
2017-11-11T05:42:01.008Z,0
2017-11-11T05:43:03.430Z,0
2017-11-11T05:44:05.855Z,0
2017-11-11T05:45:08.275Z,0
2017-11-11T05:46:10.696Z,0
2017-11-11T05:47:13.138Z,0
2017-11-11T05:48:15.541Z,0
2017-11-11T05:49:17.968Z,0
2017-11-11T05:50:20.397Z,0
2017-11-11T05:51:22.812Z,0
2017-11-11T05:52:25.233Z,0
2017-11-11T05:53:27.648Z,0
2017-11-11T05:54:30.068Z,0
2017-11-11T05:55:32.849Z,0
2017-11-11T05:56:35.260Z,0
2017-11-11T05:57:37.687Z,0
2017-11-11T05:58:40.110Z,0
2017-11-11T05:59:42.881Z,0
2017-11-11T06:00:46.026Z,0
2017-11-11T06:01:48.444Z,0
2017-11-11T06:02:50.871Z,0
2017-11-11T06:03:53.300Z,0
2017-11-11T06:04:55.715Z,0
2017-11-11T06:05:58.139Z,0
2017-11-11T06:07:00.564Z,0
2017-11-11T06:08:02.984Z,0
2017-11-11T06:09:05.397Z,0
2017-11-11T06:10:07.818Z,0
2017-11-11T06:11:10.231Z,0
2017-11-11T06:12:12.661Z,0
2017-11-11T06:13:15.471Z,0
2017-11-11T06:14:17.883Z,0
2017-11-11T06:15:20.316Z,0
2017-11-11T06:16:22.747Z,0
2017-11-11T06:17:25.167Z,0
2017-11-11T06:18:27.932Z,0
2017-11-11T06:19:30.353Z,0
2017-11-11T06:20:33.141Z,0
2017-11-11T06:21:35.633Z,0
2017-11-11T06:22:38.046Z,0
2017-11-11T06:23:40.462Z,0
2017-11-11T06:24:42.890Z,0
2017-11-11T06:25:45.298Z,0
2017-11-11T06:26:47.719Z,0
2017-11-11T06:27:50.501Z,0
2017-11-11T06:28:53.275Z,1
2017-11-11T06:29:55.697Z,1
2017-11-11T06:30:58.133Z,1
2017-11-11T06:32:00.553Z,1
2017-11-11T06:33:02.984Z,1
2017-11-11T06:34:05.410Z,1
2017-11-11T06:35:07.835Z,1
2017-11-11T06:36:10.251Z,1
2017-11-11T06:37:12.679Z,2
2017-11-11T06:38:15.134Z,2
2017-11-11T06:39:17.523Z,2
2017-11-11T06:40:19.932Z,2
2017-11-11T06:41:22.366Z,3
2017-11-11T06:42:24.776Z,3
2017-11-11T06:43:27.200Z,4
2017-11-11T06:44:29.615Z,4
2017-11-11T06:45:32.047Z,4
2017-11-11T06:46:34.451Z,5
2017-11-11T06:47:36.880Z,5
2017-11-11T06:48:39.290Z,5
2017-11-11T06:49:41.716Z,5
2017-11-11T06:50:44.493Z,5
2017-11-11T06:51:46.920Z,6
2017-11-11T06:52:49.340Z,6
2017-11-11T06:53:51.766Z,6
2017-11-11T06:54:54.548Z,7
2017-11-11T06:55:56.977Z,7
2017-11-11T06:56:59.390Z,7
2017-11-11T06:58:01.810Z,7
2017-11-11T06:59:04.248Z,7
2017-11-11T07:00:06.675Z,8
2017-11-11T07:01:09.083Z,9
2017-11-11T07:02:11.860Z,8
2017-11-11T07:03:14.278Z,10
2017-11-11T07:04:16.708Z,9
2017-11-11T07:05:19.130Z,10
2017-11-11T07:06:21.533Z,10
2017-11-11T07:07:23.961Z,10
2017-11-11T07:08:26.382Z,10
2017-11-11T07:09:28.795Z,11
2017-11-11T07:10:31.227Z,11
2017-11-11T07:11:33.635Z,12
2017-11-11T07:12:36.061Z,13
2017-11-11T07:13:38.850Z,15
2017-11-11T07:14:41.268Z,13
2017-11-11T07:15:43.696Z,13
2017-11-11T07:16:46.178Z,13
2017-11-11T07:17:48.967Z,14
2017-11-11T07:18:51.396Z,15
2017-11-11T07:19:53.818Z,13
2017-11-11T07:20:56.230Z,12
2017-11-11T07:21:58.652Z,14
2017-11-11T07:23:01.075Z,14
2017-11-11T07:24:03.494Z,14
2017-11-11T07:25:05.909Z,15
2017-11-11T07:26:08.341Z,15
2017-11-11T07:27:10.764Z,15
2017-11-11T07:28:13.186Z,14
2017-11-11T07:29:15.608Z,14
2017-11-11T07:30:18.021Z,15
2017-11-11T07:31:20.446Z,14
2017-11-11T07:32:22.879Z,13
2017-11-11T07:33:25.297Z,13
2017-11-11T07:34:27.716Z,13
2017-11-11T07:35:30.132Z,12
2017-11-11T07:36:32.564Z,13
2017-11-11T07:37:34.984Z,14
2017-11-11T07:38:37.410Z,15
2017-11-11T07:39:39.826Z,15
2017-11-11T07:40:42.246Z,15
2017-11-11T07:41:44.673Z,15
2017-11-11T07:42:47.083Z,15
2017-11-11T07:43:50.289Z,15
2017-11-11T07:44:52.718Z,15
2017-11-11T07:45:55.490Z,15
2017-11-11T07:46:57.923Z,16
2017-11-11T07:48:00.345Z,16
2017-11-11T07:49:02.760Z,15
2017-11-11T07:50:05.182Z,17
2017-11-11T07:51:07.608Z,18
2017-11-11T07:52:10.026Z,17
2017-11-11T07:53:12.441Z,18
2017-11-11T07:54:14.874Z,19
2017-11-11T07:55:17.293Z,20
2017-11-11T07:56:19.702Z,21
2017-11-11T07:57:22.127Z,22
2017-11-11T07:58:24.555Z,23
2017-11-11T07:59:26.968Z,23
2017-11-11T08:00:29.389Z,24
2017-11-11T08:01:31.808Z,20
2017-11-11T08:02:34.232Z,21
2017-11-11T08:03:36.665Z,22
2017-11-11T08:04:39.079Z,23
2017-11-11T08:05:41.500Z,26
2017-11-11T08:06:43.922Z,28
2017-11-11T08:07:46.348Z,27
2017-11-11T08:08:48.790Z,24
2017-11-11T08:09:51.576Z,19
2017-11-11T08:10:53.979Z,14
2017-11-11T08:11:56.758Z,14
2017-11-11T08:12:59.187Z,15
2017-11-11T08:14:01.610Z,16
2017-11-11T08:15:04.409Z,17
2017-11-11T08:16:06.844Z,19
2017-11-11T08:17:09.285Z,20
2017-11-11T08:18:12.070Z,23
2017-11-11T08:19:14.487Z,24
2017-11-11T08:20:17.267Z,25
2017-11-11T08:21:20.038Z,23
2017-11-11T08:22:22.462Z,22
2017-11-11T08:23:24.884Z,21
2017-11-11T08:24:27.317Z,20
2017-11-11T08:25:30.108Z,23
2017-11-11T08:26:32.530Z,34
2017-11-11T08:27:35.304Z,38
2017-11-11T08:28:37.735Z,32
2017-11-11T08:29:40.153Z,25
2017-11-11T08:30:42.938Z,21
2017-11-11T08:31:45.360Z,22
2017-11-11T08:32:47.778Z,20
2017-11-11T08:33:50.196Z,21
2017-11-11T08:34:52.987Z,21
2017-11-11T08:35:55.408Z,23
2017-11-11T08:36:57.823Z,23
2017-11-11T08:38:00.258Z,30
2017-11-11T08:39:02.664Z,30
2017-11-11T08:40:05.090Z,34
2017-11-11T08:41:07.513Z,39
2017-11-11T08:42:09.945Z,53
2017-11-11T08:43:12.359Z,41
2017-11-11T08:44:14.782Z,40
2017-11-11T08:45:17.575Z,39
2017-11-11T08:46:20.007Z,42
2017-11-11T08:47:22.419Z,43
2017-11-11T08:48:24.834Z,38
2017-11-11T08:49:27.613Z,35
2017-11-11T08:50:30.039Z,37
2017-11-11T08:51:32.462Z,33
2017-11-11T08:52:34.882Z,33
2017-11-11T08:53:37.669Z,33
2017-11-11T08:54:40.092Z,32
2017-11-11T08:55:42.515Z,38
2017-11-11T08:56:44.938Z,34
2017-11-11T08:57:47.358Z,28
2017-11-11T08:58:49.770Z,27
2017-11-11T08:59:52.202Z,28
2017-11-11T09:00:54.608Z,29
2017-11-11T09:01:57.035Z,28
2017-11-11T09:02:59.490Z,25
2017-11-11T09:04:02.270Z,29
2017-11-11T09:05:05.092Z,26
2017-11-11T09:06:07.542Z,24
2017-11-11T09:07:10.009Z,30
2017-11-11T09:08:12.455Z,32
2017-11-11T09:09:14.889Z,26
2017-11-11T09:10:17.469Z,24
2017-11-11T09:11:19.900Z,24
2017-11-11T09:12:22.336Z,32
2017-11-11T09:13:24.772Z,31
2017-11-11T09:14:27.625Z,33
2017-11-11T09:15:30.955Z,32
2017-11-11T09:16:33.377Z,39
2017-11-11T09:17:42.789Z,41
2017-11-11T09:18:45.157Z,49
2017-11-11T09:19:47.882Z,58
2017-11-11T09:20:50.256Z,49
2017-11-11T09:21:52.628Z,40
2017-11-11T09:22:55.369Z,43
2017-11-11T09:23:57.734Z,42
2017-11-11T09:25:00.103Z,38
2017-11-11T09:26:02.465Z,38
2017-11-11T09:27:04.828Z,39
2017-11-11T09:28:07.202Z,43
2017-11-11T09:29:09.576Z,38
2017-11-11T09:30:12.662Z,32
2017-11-11T09:31:15.029Z,28
2017-11-11T09:32:17.407Z,28
2017-11-11T09:33:19.771Z,24
2017-11-11T09:34:22.148Z,26
2017-11-11T09:35:24.872Z,23
2017-11-11T09:36:27.942Z,22
2017-11-11T09:37:30.316Z,24
2017-11-11T09:38:32.696Z,27
2017-11-11T09:39:35.070Z,26
2017-11-11T09:40:37.443Z,27
2017-11-11T09:41:39.800Z,26
2017-11-11T09:42:42.176Z,23
2017-11-11T09:43:44.550Z,26
2017-11-11T09:44:46.918Z,23
2017-11-11T09:45:49.296Z,22
2017-11-11T09:46:52.016Z,19
2017-11-11T09:47:54.381Z,24
2017-11-11T09:48:56.757Z,26
2017-11-11T09:49:59.135Z,21
2017-11-11T09:51:01.515Z,20
2017-11-11T09:52:03.890Z,18
2017-11-11T09:53:06.273Z,14
2017-11-11T09:54:08.991Z,10
2017-11-11T09:55:11.355Z,9
2017-11-11T09:56:13.746Z,7
2017-11-11T09:57:16.125Z,8
2017-11-11T09:58:18.501Z,11
2017-11-11T09:59:20.882Z,10
2017-11-11T10:00:23.241Z,14
2017-11-11T10:01:25.626Z,16
2017-11-11T10:02:28.002Z,12
2017-11-11T10:03:30.364Z,12
2017-11-11T10:04:32.736Z,11
2017-11-11T10:05:35.105Z,12
2017-11-11T10:06:37.465Z,12
2017-11-11T10:07:39.855Z,15
2017-11-11T10:08:45.285Z,14
2017-11-11T10:09:47.732Z,14
2017-11-11T10:10:50.930Z,12
2017-11-11T10:11:54.244Z,13
2017-11-11T10:12:56.705Z,15
2017-11-11T10:13:59.139Z,13
2017-11-11T10:15:01.565Z,14
2017-11-11T10:16:04.009Z,14
2017-11-11T10:17:06.833Z,15
2017-11-11T10:18:09.637Z,17
2017-11-11T10:19:12.074Z,17
2017-11-11T10:20:14.501Z,15
2017-11-11T10:21:16.927Z,14
2017-11-11T10:22:19.371Z,13
2017-11-11T10:23:21.796Z,14
2017-11-11T10:24:24.988Z,14
2017-11-11T10:25:27.398Z,14
2017-11-11T10:26:30.176Z,15
2017-11-11T10:27:32.592Z,13
2017-11-11T10:28:35.387Z,12
2017-11-11T10:29:37.816Z,11
2017-11-11T10:30:40.343Z,12
2017-11-11T10:31:42.761Z,13
2017-11-11T10:32:45.203Z,13
2017-11-11T10:33:47.632Z,14
2017-11-11T10:34:50.066Z,15
2017-11-11T10:35:52.508Z,14
2017-11-11T10:36:55.315Z,15
2017-11-11T10:37:58.091Z,15
2017-11-11T10:39:00.530Z,15
2017-11-11T10:40:03.313Z,15
2017-11-11T10:41:05.742Z,17
2017-11-11T10:42:08.163Z,20
2017-11-11T10:43:10.609Z,20
2017-11-11T10:44:13.406Z,21
2017-11-11T10:45:15.843Z,24
2017-11-11T10:46:18.282Z,30
2017-11-11T10:47:20.718Z,40
2017-11-11T10:48:23.163Z,52
2017-11-11T10:49:25.611Z,62
2017-11-11T10:50:28.026Z,67
2017-11-11T10:51:30.829Z,74
2017-11-11T10:52:33.288Z,82
2017-11-11T10:53:36.060Z,87
2017-11-11T10:54:38.476Z,89
2017-11-11T10:55:40.894Z,81
2017-11-11T10:56:43.682Z,75
2017-11-11T10:57:46.442Z,69
2017-11-11T10:58:48.877Z,61
2017-11-11T10:59:51.292Z,61
2017-11-11T11:00:54.102Z,55
2017-11-11T11:01:56.535Z,51
2017-11-11T11:02:58.956Z,51
2017-11-11T11:04:01.406Z,48
2017-11-11T11:05:03.823Z,48
2017-11-11T11:06:06.585Z,55
2017-11-11T11:07:09.014Z,48
2017-11-11T11:08:11.443Z,52
2017-11-11T11:09:14.248Z,45
2017-11-11T11:10:16.712Z,38
2017-11-11T11:11:19.140Z,34
2017-11-11T11:12:21.570Z,33
2017-11-11T11:13:23.995Z,35
2017-11-11T11:14:26.403Z,32
2017-11-11T11:15:28.829Z,25
2017-11-11T11:16:31.263Z,23
2017-11-11T11:17:33.682Z,19
2017-11-11T11:18:36.109Z,20
2017-11-11T11:19:39.608Z,17
2017-11-11T11:20:42.399Z,18
2017-11-11T11:21:45.174Z,20
2017-11-11T11:22:47.591Z,27
2017-11-11T11:23:50.030Z,24
2017-11-11T11:24:52.450Z,28
2017-11-11T11:25:54.989Z,25
2017-11-11T11:26:57.426Z,24
2017-11-11T11:27:59.847Z,28
2017-11-11T11:29:02.277Z,25
2017-11-11T11:30:04.706Z,23
2017-11-11T11:31:07.116Z,28
2017-11-11T11:32:09.913Z,25
2017-11-11T11:33:12.347Z,22
2017-11-11T11:34:14.760Z,20
2017-11-11T11:35:17.186Z,19
2017-11-11T11:36:19.602Z,22
2017-11-11T11:37:22.044Z,22
2017-11-11T11:38:24.464Z,23
2017-11-11T11:39:26.887Z,24
2017-11-11T11:40:29.302Z,23
2017-11-11T11:41:31.741Z,30
2017-11-11T11:42:34.187Z,32
2017-11-11T11:43:36.608Z,30
2017-11-11T11:44:39.032Z,30
2017-11-11T11:45:41.453Z,30
2017-11-11T11:46:43.875Z,31
2017-11-11T11:47:46.326Z,34
2017-11-11T11:48:48.744Z,36
2017-11-11T11:49:51.157Z,35
2017-11-11T11:50:53.575Z,38
2017-11-11T11:51:55.994Z,36
2017-11-11T11:52:58.423Z,35
2017-11-11T11:54:00.843Z,44
2017-11-11T11:55:03.278Z,51
2017-11-11T11:56:06.453Z,69
2017-11-11T11:57:08.864Z,68
2017-11-11T11:58:11.311Z,65
2017-11-11T11:59:13.732Z,59
2017-11-11T12:00:16.151Z,61
2017-11-11T12:01:18.575Z,64
2017-11-11T12:02:21.369Z,56
2017-11-11T12:03:23.796Z,52
2017-11-11T12:04:27.308Z,47
2017-11-11T12:05:30.081Z,44
2017-11-11T12:06:32.509Z,40
2017-11-11T12:07:35.307Z,49
2017-11-11T12:08:37.740Z,56
2017-11-11T12:09:40.157Z,54
2017-11-11T12:10:42.583Z,70
2017-11-11T12:11:45.004Z,54
2017-11-11T12:12:47.442Z,50
2017-11-11T12:13:49.853Z,62
2017-11-11T12:14:52.285Z,51
2017-11-11T12:15:54.703Z,68
2017-11-11T12:16:57.497Z,78
2017-11-11T12:17:59.924Z,81
2017-11-11T12:19:02.346Z,64
2017-11-11T12:20:04.763Z,63
2017-11-11T12:21:07.198Z,68
2017-11-11T12:22:09.619Z,84
2017-11-11T12:23:12.057Z,77
2017-11-11T12:24:14.523Z,60
2017-11-11T12:25:17.341Z,61
2017-11-11T12:26:19.781Z,62
2017-11-11T12:27:22.250Z,279
2017-11-11T12:28:24.703Z,87
2017-11-11T12:29:27.166Z,56
2017-11-11T12:30:29.975Z,47
2017-11-11T12:31:32.406Z,45
2017-11-11T12:32:34.841Z,40
2017-11-11T12:33:37.628Z,36
2017-11-11T12:34:40.091Z,40
2017-11-11T12:35:42.527Z,39
2017-11-11T12:36:44.979Z,39
2017-11-11T12:37:47.423Z,29
2017-11-11T12:38:49.869Z,28
2017-11-11T12:39:52.335Z,31
2017-11-11T12:40:54.771Z,28
2017-11-11T12:41:57.213Z,32
2017-11-11T12:42:59.654Z,29
2017-11-11T12:44:02.124Z,22
2017-11-11T12:45:04.589Z,22
2017-11-11T12:46:07.118Z,23
2017-11-11T12:47:09.602Z,24
2017-11-11T12:48:12.043Z,26
2017-11-11T12:49:14.905Z,30
2017-11-11T12:50:17.767Z,26
2017-11-11T12:51:20.226Z,17
2017-11-11T12:52:52.684Z,17
2017-11-11T12:53:55.058Z,19
2017-11-11T12:54:57.425Z,17
2017-11-11T12:55:59.796Z,13
2017-11-11T12:57:02.179Z,15
2017-11-11T12:58:04.619Z,11
2017-11-11T12:59:07.054Z,9
2017-11-11T13:00:09.776Z,10
2017-11-11T13:01:12.149Z,9
2017-11-11T13:02:14.517Z,7
2017-11-11T13:03:17.247Z,6
2017-11-11T13:04:19.616Z,6
2017-11-11T13:05:21.993Z,9
2017-11-11T13:06:24.357Z,11
2017-11-11T13:07:26.729Z,11
2017-11-11T13:08:29.096Z,8
2017-11-11T13:09:31.492Z,6
2017-11-11T13:10:33.860Z,6
2017-11-11T13:11:36.846Z,8
2017-11-11T13:12:39.593Z,7
2017-11-11T13:13:41.982Z,7
2017-11-11T13:14:44.697Z,6
2017-11-11T13:15:56.283Z,5
2017-11-11T13:17:00.606Z,5
2017-11-11T13:18:03.691Z,4
2017-11-11T13:19:15.072Z,5
2017-11-11T13:20:18.826Z,6
2017-11-11T13:21:21.198Z,6
2017-11-11T13:22:23.920Z,5
2017-11-11T13:23:26.301Z,4
2017-11-11T13:24:28.662Z,4
2017-11-11T13:25:31.046Z,5
2017-11-11T13:26:33.419Z,5
2017-11-11T13:27:35.793Z,4
2017-11-11T13:28:38.171Z,3
2017-11-11T13:29:41.244Z,3
2017-11-11T13:30:43.616Z,2
2017-11-11T13:31:46.098Z,2
2017-11-11T13:32:48.800Z,2
2017-11-11T13:33:51.197Z,2
2017-11-11T13:34:53.582Z,2
2017-11-11T13:35:55.964Z,2
2017-11-11T13:36:58.336Z,2
2017-11-11T13:38:00.702Z,2
2017-11-11T13:39:03.068Z,2
2017-11-11T13:40:05.453Z,2
2017-11-11T13:41:07.831Z,2
2017-11-11T13:42:10.208Z,2
2017-11-11T13:43:12.582Z,3
2017-11-11T13:44:14.948Z,3
2017-11-11T13:45:17.672Z,4
2017-11-11T13:46:20.049Z,5
2017-11-11T13:47:22.459Z,9
2017-11-11T13:48:24.837Z,14
2017-11-11T13:49:27.228Z,21
2017-11-11T13:50:29.622Z,25
2017-11-11T13:51:32.052Z,24
2017-11-11T13:52:34.476Z,23
2017-11-11T13:53:37.277Z,21
2017-11-11T13:54:39.711Z,20
2017-11-11T13:55:42.134Z,19
2017-11-11T13:56:44.598Z,18
2017-11-11T13:57:47.014Z,19
2017-11-11T13:58:49.457Z,21
2017-11-11T13:59:52.293Z,23
2017-11-11T14:00:54.912Z,24
2017-11-11T14:01:57.443Z,25
2017-11-11T14:02:59.867Z,25
2017-11-11T14:04:02.283Z,25
2017-11-11T14:05:05.466Z,25
2017-11-11T14:06:07.942Z,25
2017-11-11T14:07:10.738Z,26
2017-11-11T14:08:13.282Z,27
2017-11-11T14:09:15.702Z,27
2017-11-11T14:10:18.272Z,26
2017-11-11T14:11:20.713Z,25
2017-11-11T14:12:23.143Z,24
2017-11-11T14:13:25.664Z,22
2017-11-11T14:14:28.087Z,21
2017-11-11T14:15:30.533Z,20
2017-11-11T14:16:32.963Z,19
2017-11-11T14:17:35.402Z,18
2017-11-11T14:18:37.830Z,18
2017-11-11T14:19:40.806Z,17
2017-11-11T14:20:43.241Z,18
2017-11-11T14:21:45.832Z,18
2017-11-11T14:22:48.270Z,17
2017-11-11T14:23:50.691Z,17
2017-11-11T14:24:53.128Z,16
2017-11-11T14:25:55.934Z,15
2017-11-11T14:26:58.380Z,15
2017-11-11T14:28:01.608Z,15
2017-11-11T14:29:04.047Z,15
2017-11-11T14:30:06.458Z,14
2017-11-11T14:31:08.893Z,14
2017-11-11T14:32:11.666Z,13
2017-11-11T14:33:14.436Z,13
2017-11-11T14:34:16.992Z,13
2017-11-11T14:35:19.508Z,12
2017-11-11T14:36:22.295Z,12
2017-11-11T14:37:24.751Z,12
2017-11-11T14:38:27.264Z,12
2017-11-11T14:39:29.697Z,12
2017-11-11T14:40:32.134Z,11
2017-11-11T14:41:34.571Z,11
2017-11-11T14:42:37.014Z,11
2017-11-11T14:43:41.171Z,11
2017-11-11T14:44:43.912Z,11
2017-11-11T14:45:46.701Z,10
2017-11-11T14:46:49.142Z,10
2017-11-11T14:47:51.634Z,10
2017-11-11T14:48:55.879Z,9
2017-11-11T14:50:00.012Z,9
2017-11-11T14:51:03.542Z,8
2017-11-11T14:52:07.300Z,8
2017-11-11T14:53:10.452Z,8
2017-11-11T14:54:12.891Z,8
2017-11-11T14:55:15.687Z,7
2017-11-11T14:56:18.093Z,7
2017-11-11T14:57:20.533Z,7
2017-11-11T14:58:22.964Z,7
2017-11-11T14:59:25.389Z,6
2017-11-11T15:00:28.187Z,6
2017-11-11T15:01:30.622Z,6
2017-11-11T15:02:33.053Z,5
2017-11-11T15:03:35.498Z,5
2017-11-11T15:04:37.916Z,5
2017-11-11T15:05:40.333Z,5
2017-11-11T15:06:42.759Z,5
2017-11-11T15:07:45.187Z,5
2017-11-11T15:08:47.613Z,5
2017-11-11T15:09:50.036Z,5